createdAt,value
2019-01-23T00:02:19.646Z,93853.14
2019-01-23T00:04:45.988Z,93845.44
2019-01-23T00:07:12.309Z,93851.73
2019-01-23T00:09:38.651Z,93834.71
2019-01-23T00:12:04.989Z,93845.88
2019-01-23T00:14:31.310Z,93853.57
2019-01-23T00:16:57.651Z,93859.55
2019-01-23T00:19:24.035Z,93858.42
2019-01-23T00:21:50.339Z,93868.54
2019-01-23T00:24:16.658Z,93864.37
2019-01-23T00:26:43.003Z,93863.91
2019-01-23T00:29:09.375Z,93871.10
2019-01-23T00:31:35.729Z,93871.05
2019-01-23T00:34:02.238Z,93880.44
2019-01-23T00:36:28.567Z,93883.06
2019-01-23T00:38:54.898Z,93863.09
2019-01-23T00:41:21.229Z,93853.09
2019-01-23T00:43:47.598Z,93857.14
2019-01-23T00:46:13.887Z,93858.69
2019-01-23T00:48:40.221Z,93863.35
2019-01-23T00:51:06.552Z,93858.34
2019-01-23T00:53:32.882Z,93855.57
2019-01-23T00:55:59.220Z,93848.54
2019-01-23T00:58:25.554Z,93841.46
2019-01-23T01:00:51.932Z,93832.28
2019-01-23T01:03:18.223Z,93834.23
2019-01-23T01:05:44.556Z,93823.11
2019-01-23T01:08:10.890Z,93821.41
2019-01-23T01:10:37.224Z,93829.52
2019-01-23T01:13:03.606Z,93840.08
2019-01-23T01:15:29.941Z,93844.19
2019-01-23T01:17:56.370Z,93848.19
2019-01-23T01:20:22.743Z,93819.89
2019-01-23T01:22:49.087Z,93814.49
2019-01-23T01:25:15.447Z,93820.23
2019-01-23T01:27:41.791Z,93831.16
2019-01-23T01:30:08.106Z,93841.36
2019-01-23T01:32:34.483Z,93806.91
2019-01-23T01:35:00.828Z,93833.27
2019-01-23T01:37:27.194Z,93829.15
2019-01-23T01:39:53.479Z,93831.09
2019-01-23T01:42:19.833Z,93830.78
2019-01-23T01:44:46.162Z,93828.22
2019-01-23T01:47:12.496Z,93784.73
2019-01-23T01:49:38.850Z,93819.36
2019-01-23T01:52:05.180Z,93796.89
2019-01-23T01:54:31.531Z,93797.36
2019-01-23T01:56:57.973Z,93796.27
2019-01-23T01:59:24.299Z,93807.06
2019-01-23T02:01:50.625Z,93781.87
2019-01-23T02:04:16.976Z,93803.22
2019-01-23T02:06:43.303Z,93792.20
2019-01-23T02:09:09.652Z,93788.76
2019-01-23T02:11:36.000Z,93809.83
2019-01-23T02:14:02.328Z,93784.52
2019-01-23T02:16:28.657Z,93776.94
2019-01-23T02:18:55.095Z,93794.16
2019-01-23T02:21:21.367Z,93808.73
2019-01-23T02:23:47.696Z,93784.89
2019-01-23T02:26:14.139Z,93787.61
2019-01-23T02:28:40.468Z,93781.58
2019-01-23T02:31:06.798Z,93742.22
2019-01-23T02:33:33.145Z,93741.91
2019-01-23T02:35:59.572Z,93758.13
2019-01-23T02:38:25.927Z,93758.02
2019-01-23T02:40:52.242Z,93762.68
2019-01-23T02:43:18.579Z,93758.48
2019-01-23T02:45:44.959Z,93759.22
2019-01-23T02:48:11.284Z,93776.81
2019-01-23T02:50:37.665Z,93775.44
2019-01-23T02:53:04.045Z,93770.43
2019-01-23T02:55:30.402Z,93776.72
2019-01-23T02:57:56.745Z,93775.56
2019-01-23T03:00:23.058Z,93792.22
2019-01-23T03:02:49.423Z,93773.52
2019-01-23T03:05:15.743Z,93761.17
2019-01-23T03:07:42.082Z,93795.52
2019-01-23T03:10:08.423Z,93772.16
2019-01-23T03:12:34.927Z,93789.89
2019-01-23T03:15:01.259Z,93773.23
2019-01-23T03:17:27.599Z,93759.39
2019-01-23T03:19:53.947Z,93793.17
2019-01-23T03:22:20.278Z,93772.67
2019-01-23T03:24:46.649Z,93760.38
2019-01-23T03:27:13.114Z,93778.06
2019-01-23T03:29:39.443Z,93755.14
2019-01-23T03:32:05.777Z,93768.68
2019-01-23T03:34:32.154Z,93755.63
2019-01-23T03:36:58.504Z,93763.81
2019-01-23T03:39:24.852Z,93763.38
2019-01-23T03:41:51.179Z,93745.80
2019-01-23T03:44:17.617Z,93762.09
2019-01-23T03:46:43.966Z,93758.72
2019-01-23T03:49:10.335Z,93753.73
2019-01-23T03:51:36.664Z,93748.27
2019-01-23T03:54:03.006Z,93730.80
2019-01-23T03:56:29.389Z,93728.59
2019-01-23T03:58:55.734Z,93738.66
2019-01-23T04:01:22.099Z,93737.44
2019-01-23T04:03:48.461Z,93727.16
2019-01-23T04:06:14.828Z,93740.38
2019-01-23T04:08:41.155Z,93745.85
2019-01-23T04:11:07.508Z,93737.91
2019-01-23T04:13:33.839Z,93728.58
2019-01-23T04:16:00.231Z,93746.72
2019-01-23T04:18:26.571Z,93764.64
2019-01-23T04:20:52.900Z,93741.42
2019-01-23T04:23:19.308Z,93740.28
2019-01-23T04:25:45.653Z,93778.47
2019-01-23T04:28:11.976Z,93777.30
2019-01-23T04:30:38.380Z,93773.34
2019-01-23T04:33:04.756Z,93773.92
2019-01-23T04:35:31.088Z,93767.98
2019-01-23T04:37:57.488Z,93779.20
2019-01-23T04:40:23.826Z,93799.80
2019-01-23T04:42:50.181Z,93791.61
2019-01-23T04:45:16.583Z,93790.47
2019-01-23T04:47:42.901Z,93779.05
2019-01-23T04:50:09.228Z,93789.89
2019-01-23T04:52:35.572Z,93782.31
2019-01-23T04:55:01.919Z,93785.61
2019-01-23T04:57:28.276Z,93775.20
2019-01-23T04:59:54.679Z,93785.81
2019-01-23T05:02:21.011Z,93796.88
2019-01-23T05:04:47.370Z,93803.41
2019-01-23T05:07:13.701Z,93775.01
2019-01-23T05:09:40.029Z,93782.11
2019-01-23T05:12:06.358Z,93800.38
2019-01-23T05:14:32.685Z,93791.41
2019-01-23T05:16:59.018Z,93779.55
2019-01-23T05:19:25.399Z,93789.80
2019-01-23T05:21:51.729Z,93795.39
2019-01-23T05:24:18.065Z,93784.53
2019-01-23T05:26:44.397Z,93811.80
2019-01-23T05:29:10.724Z,93818.20
2019-01-23T05:31:37.106Z,93805.70
2019-01-23T05:34:03.483Z,93809.55
2019-01-23T05:36:29.899Z,93820.56
2019-01-23T05:38:56.243Z,93817.50
2019-01-23T05:41:22.573Z,93806.23
2019-01-23T05:43:49.008Z,93792.62
2019-01-23T05:46:15.336Z,93792.02
2019-01-23T05:48:41.673Z,93805.27
2019-01-23T05:51:08.000Z,93802.24
2019-01-23T05:53:34.407Z,93806.09
2019-01-23T05:56:00.734Z,93800.05
2019-01-23T05:58:27.227Z,93808.53
2019-01-23T06:00:53.570Z,93821.09
2019-01-23T06:03:19.988Z,93820.66
2019-01-23T06:05:46.393Z,93814.68
2019-01-23T06:08:12.753Z,93807.11
2019-01-23T06:10:39.091Z,93797.88
2019-01-23T06:13:05.465Z,93795.77
2019-01-23T06:15:34.394Z,93796.83
2019-01-23T06:18:00.745Z,93819.42
2019-01-23T06:20:27.139Z,93811.59
2019-01-23T06:22:53.473Z,93782.98
2019-01-23T06:25:19.936Z,93799.63
2019-01-23T06:27:46.257Z,93807.97
2019-01-23T06:30:12.594Z,93792.20
2019-01-23T06:32:38.977Z,93788.63
2019-01-23T06:35:05.335Z,93793.70
2019-01-23T06:37:31.665Z,93778.84
2019-01-23T06:39:58.050Z,93784.56
2019-01-23T06:42:24.427Z,93770.23
2019-01-23T06:44:50.754Z,93781.70
2019-01-23T06:47:17.117Z,93787.85
2019-01-23T06:49:43.520Z,93794.34
2019-01-23T06:52:09.797Z,93785.69
2019-01-23T06:54:36.206Z,93784.09
2019-01-23T06:57:02.532Z,93770.36
2019-01-23T06:59:28.872Z,93737.89
2019-01-23T07:01:55.287Z,93788.63
2019-01-23T07:04:21.654Z,93775.95
2019-01-23T07:06:47.993Z,93773.02
2019-01-23T07:09:14.327Z,93761.83
2019-01-23T07:11:40.829Z,93768.54
2019-01-23T07:14:07.099Z,93762.86
2019-01-23T07:16:33.512Z,93772.66
2019-01-23T07:18:59.929Z,93756.31
2019-01-23T07:21:26.259Z,93769.62
2019-01-23T07:23:52.658Z,93762.92
2019-01-23T07:26:19.022Z,93762.53
2019-01-23T07:28:49.131Z,93767.78
2019-01-23T07:31:11.740Z,93761.51
2019-01-23T07:33:38.198Z,93765.20
2019-01-23T07:36:04.527Z,93776.91
2019-01-23T07:38:30.967Z,93769.77
2019-01-23T07:40:57.334Z,93766.60
2019-01-23T07:43:23.745Z,93759.48
2019-01-23T07:45:50.273Z,93768.42
2019-01-23T07:48:17.115Z,93774.84
2019-01-23T07:50:43.180Z,93779.89
2019-01-23T07:53:11.089Z,93784.84
2019-01-23T07:55:37.532Z,93774.56
2019-01-23T07:58:05.102Z,93781.80
2019-01-23T08:00:31.795Z,93766.61
2019-01-23T08:02:58.199Z,93764.25
2019-01-23T08:05:24.521Z,93768.86
2019-01-23T08:07:50.844Z,93760.36
2019-01-23T08:10:17.253Z,93778.54
2019-01-23T08:12:43.683Z,93773.02
2019-01-23T08:15:10.013Z,93772.70
2019-01-23T08:17:36.362Z,93757.59
2019-01-23T08:20:02.900Z,93761.45
2019-01-23T08:22:29.432Z,93764.60
2019-01-23T08:24:55.812Z,93761.33
2019-01-23T08:27:22.164Z,93773.20
2019-01-23T08:29:48.539Z,93783.45
2019-01-23T08:32:14.899Z,93770.93
2019-01-23T08:34:41.228Z,93771.84
2019-01-23T08:37:07.650Z,93761.03
2019-01-23T08:39:33.992Z,93776.55
2019-01-23T08:42:00.327Z,93777.41
2019-01-23T08:44:27.055Z,93773.84
2019-01-23T08:46:53.487Z,93773.73
2019-01-23T08:49:19.817Z,93784.42
2019-01-23T08:51:46.202Z,93785.94
2019-01-23T08:54:12.507Z,93771.48
2019-01-23T08:56:38.918Z,93792.41
2019-01-23T08:59:05.318Z,93790.31
2019-01-23T09:01:31.697Z,93789.19
2019-01-23T09:03:58.163Z,93789.42
2019-01-23T09:06:25.603Z,93790.41
2019-01-23T09:08:52.006Z,93791.02
2019-01-23T09:11:18.439Z,93793.80
2019-01-23T09:13:44.778Z,93793.64
2019-01-23T09:16:11.128Z,93784.62
2019-01-23T09:18:37.517Z,93790.48
2019-01-23T09:21:03.865Z,93783.44
2019-01-23T09:23:30.201Z,93774.43
2019-01-23T09:25:57.173Z,93771.22
2019-01-23T09:28:23.755Z,93761.42
2019-01-23T09:30:52.955Z,93756.72
2019-01-23T09:33:18.496Z,93748.89
2019-01-23T09:35:46.097Z,93745.39
2019-01-23T09:38:12.440Z,93732.64
2019-01-23T09:40:38.853Z,93732.30
2019-01-23T09:43:05.241Z,93728.78
2019-01-23T09:45:31.576Z,93720.38
2019-01-23T09:47:58.051Z,93722.22
2019-01-23T09:50:24.568Z,93709.35
2019-01-23T09:52:50.992Z,93702.18
2019-01-23T09:55:17.439Z,93686.05
2019-01-23T09:57:43.825Z,93677.04
2019-01-23T10:00:10.166Z,93679.48
2019-01-23T10:02:36.602Z,93681.45
2019-01-23T10:05:02.973Z,93682.09
2019-01-23T10:07:29.253Z,93676.84
2019-01-23T10:09:55.597Z,93686.27
2019-01-23T10:12:21.993Z,93693.25
2019-01-23T10:14:48.347Z,93688.33
2019-01-23T10:17:14.697Z,93690.84
2019-01-23T10:19:41.090Z,93673.45
2019-01-23T10:22:07.446Z,93649.47
2019-01-23T10:24:36.035Z,93663.42
2019-01-23T10:27:00.143Z,93677.32
2019-01-23T10:29:26.494Z,93620.66
2019-01-23T10:31:52.840Z,93629.78
2019-01-23T10:34:19.302Z,93650.14
2019-01-23T10:36:45.632Z,93629.09
2019-01-23T10:39:11.966Z,93641.19
2019-01-23T10:41:38.296Z,93629.70
2019-01-23T10:44:04.639Z,93622.65
2019-01-23T10:46:31.035Z,93619.94
2019-01-23T10:48:57.361Z,93631.67
2019-01-23T10:51:23.711Z,93610.25
2019-01-23T10:53:50.100Z,93603.53
2019-01-23T10:56:16.461Z,93592.72
2019-01-23T10:58:42.805Z,93590.20
2019-01-23T11:01:13.380Z,93588.94
2019-01-23T11:03:35.597Z,93583.14
2019-01-23T11:06:01.937Z,93572.84
2019-01-23T11:08:28.265Z,93586.09
2019-01-23T11:10:54.614Z,93579.92
2019-01-23T11:13:20.966Z,93581.85
2019-01-23T11:15:47.410Z,93575.64
2019-01-23T11:18:13.907Z,93580.56
2019-01-23T11:20:40.252Z,93567.67
2019-01-23T11:23:06.606Z,93549.30
2019-01-23T11:25:33.077Z,93556.91
2019-01-23T11:27:59.395Z,93536.13
2019-01-23T11:30:25.728Z,93541.45
2019-01-23T11:32:52.314Z,93542.77
2019-01-23T11:35:18.678Z,93539.22
2019-01-23T11:37:45.079Z,93541.64
2019-01-23T11:40:11.505Z,93542.43
2019-01-23T11:42:37.911Z,93542.63
2019-01-23T11:45:04.336Z,93542.00
2019-01-23T11:47:31.070Z,93541.20
2019-01-23T11:49:57.549Z,93538.63
2019-01-23T11:52:23.955Z,93533.00
2019-01-23T11:54:50.335Z,93529.13
2019-01-23T11:57:16.750Z,93533.16
2019-01-23T11:59:43.141Z,93536.36
2019-01-23T12:02:09.483Z,93531.70
2019-01-23T12:04:35.978Z,93538.16
2019-01-23T12:07:02.578Z,93530.72
2019-01-23T12:09:28.984Z,93524.63
2019-01-23T12:11:55.339Z,93525.30
2019-01-23T12:14:22.505Z,93528.98
2019-01-23T12:16:48.846Z,93524.32
2019-01-23T12:19:15.254Z,93517.05
2019-01-23T12:21:41.583Z,93523.03
2019-01-23T12:24:08.405Z,93526.73
2019-01-23T12:26:34.747Z,93521.58
2019-01-23T12:29:01.108Z,93520.30
2019-01-23T12:31:27.460Z,93520.61
2019-01-23T12:33:53.896Z,93517.55
2019-01-23T12:36:20.231Z,93508.34
2019-01-23T12:38:46.625Z,93514.50
2019-01-23T12:41:12.970Z,93513.09
2019-01-23T12:43:39.333Z,93510.77
2019-01-23T12:46:06.879Z,93500.79
2019-01-23T12:48:32.118Z,93491.62
2019-01-23T12:50:58.524Z,93494.52
2019-01-23T12:53:25.096Z,93499.83
2019-01-23T12:55:51.476Z,93495.97
2019-01-23T12:58:17.859Z,93498.55
2019-01-23T13:00:44.236Z,93499.52
2019-01-23T13:03:10.577Z,93502.58
2019-01-23T13:05:37.009Z,93503.08
2019-01-23T13:08:03.372Z,93494.88
2019-01-23T13:10:29.719Z,93493.70
2019-01-23T13:12:56.165Z,93491.32
2019-01-23T13:15:22.568Z,93489.22
2019-01-23T13:17:48.915Z,93483.11
2019-01-23T13:20:15.437Z,93479.53
2019-01-23T13:22:41.876Z,93479.19
2019-01-23T13:25:08.190Z,93478.25
2019-01-23T13:27:34.538Z,93471.98
2019-01-23T13:30:00.960Z,93466.82
2019-01-23T13:32:27.344Z,93469.05
2019-01-23T13:34:53.714Z,93464.20
2019-01-23T13:37:20.095Z,93475.37
2019-01-23T13:39:46.473Z,93466.34
2019-01-23T13:42:12.857Z,93466.02
2019-01-23T13:44:39.294Z,93463.42
2019-01-23T13:47:05.579Z,93472.15
2019-01-23T13:49:31.925Z,93469.72
2019-01-23T13:51:58.279Z,93462.80
2019-01-23T13:54:24.611Z,93474.23
2019-01-23T13:56:51.395Z,93462.78
2019-01-23T13:59:17.681Z,93464.41
2019-01-23T14:01:44.130Z,93461.64
2019-01-23T14:04:10.480Z,93459.89
2019-01-23T14:06:36.948Z,93463.91
2019-01-23T14:09:03.952Z,93467.30
2019-01-23T14:11:30.439Z,93462.62
2019-01-23T14:13:56.769Z,93458.75
2019-01-23T14:16:23.106Z,93458.12
2019-01-23T14:18:49.466Z,93446.19
2019-01-23T14:21:15.844Z,93449.25
2019-01-23T14:23:42.380Z,93451.48
2019-01-23T14:26:08.923Z,93452.59
2019-01-23T14:28:36.777Z,93450.36
2019-01-23T14:31:01.599Z,93454.89
2019-01-23T14:33:27.984Z,93447.78
2019-01-23T14:35:54.314Z,93449.09
2019-01-23T14:38:20.646Z,93447.80
2019-01-23T14:40:47.009Z,93448.94
2019-01-23T14:43:13.782Z,93445.86
2019-01-23T14:45:40.655Z,93447.95
2019-01-23T14:48:07.037Z,93440.88
2019-01-23T14:50:33.461Z,93430.38
2019-01-23T14:52:59.981Z,93421.69
2019-01-23T14:55:26.426Z,93422.45
2019-01-23T14:57:52.957Z,93432.00
2019-01-23T15:00:19.288Z,93424.59
2019-01-23T15:02:45.724Z,93418.77
2019-01-23T15:05:12.537Z,93418.28
2019-01-23T15:07:38.904Z,93413.59
2019-01-23T15:10:05.297Z,93407.79
2019-01-23T15:12:31.755Z,93412.17
2019-01-23T15:14:58.109Z,93416.99
2019-01-23T15:17:24.489Z,93416.03
2019-01-23T15:19:50.964Z,93413.30
2019-01-23T15:22:17.366Z,93408.11
2019-01-23T15:24:43.752Z,93401.03
2019-01-23T15:27:10.251Z,93388.14
2019-01-23T15:29:36.612Z,93392.00
2019-01-23T15:32:02.964Z,93390.72
2019-01-23T15:34:29.319Z,93392.97
2019-01-23T15:36:55.772Z,93387.50
2019-01-23T15:39:22.156Z,93389.93
2019-01-23T15:41:48.536Z,93381.72
2019-01-23T15:44:14.897Z,93378.50
2019-01-23T15:46:41.279Z,93368.49
2019-01-23T15:49:07.636Z,93367.69
2019-01-23T15:51:33.959Z,93368.83
2019-01-23T15:54:00.393Z,93364.95
2019-01-23T15:56:26.809Z,93363.36
2019-01-23T15:58:53.166Z,93359.97
2019-01-23T16:01:19.599Z,93363.03
2019-01-23T16:03:45.962Z,93367.55
2019-01-23T16:06:12.379Z,93369.78
2019-01-23T16:08:38.683Z,93362.56
2019-01-23T16:11:05.029Z,93361.91
2019-01-23T16:13:31.358Z,93359.63
2019-01-23T16:15:57.694Z,93356.42
2019-01-23T16:18:24.023Z,93359.81
2019-01-23T16:20:50.509Z,93372.04
2019-01-23T16:23:16.748Z,93364.31
2019-01-23T16:25:43.151Z,93361.92
2019-01-23T16:28:09.547Z,93367.23
2019-01-23T16:30:35.914Z,93369.80
2019-01-23T16:33:02.258Z,93366.73
2019-01-23T16:35:28.610Z,93364.16
2019-01-23T16:37:54.963Z,93364.64
2019-01-23T16:40:21.303Z,93362.86
2019-01-23T16:42:47.640Z,93366.25
2019-01-23T16:45:13.980Z,93356.76
2019-01-23T16:47:40.329Z,93349.47
2019-01-23T16:50:06.684Z,93354.95
2019-01-23T16:52:33.358Z,93351.23
2019-01-23T16:54:59.787Z,93354.95
2019-01-23T16:57:26.136Z,93363.47
2019-01-23T16:59:52.451Z,93360.23
2019-01-23T17:02:18.777Z,93351.38
2019-01-23T17:04:45.177Z,93339.46
2019-01-23T17:07:11.480Z,93348.66
2019-01-23T17:09:37.885Z,93353.33
2019-01-23T17:12:09.233Z,93337.53
2019-01-23T17:14:30.569Z,93337.83
2019-01-23T17:16:56.928Z,93333.17
2019-01-23T17:19:23.359Z,93324.83
2019-01-23T17:21:49.717Z,93322.38
2019-01-23T17:24:16.060Z,93324.34
2019-01-23T17:26:42.400Z,93331.57
2019-01-23T17:29:08.804Z,93322.05
2019-01-23T17:31:35.159Z,93317.55
2019-01-23T17:34:01.491Z,93325.45
2019-01-23T17:36:27.821Z,93320.62
2019-01-23T17:38:54.172Z,93314.82
2019-01-23T17:41:20.661Z,93319.95
2019-01-23T17:43:46.931Z,93328.49
2019-01-23T17:46:13.314Z,93317.56
2019-01-23T17:48:39.642Z,93307.25
2019-01-23T17:51:05.972Z,93312.25
2019-01-23T17:53:32.346Z,93302.41
2019-01-23T17:55:58.679Z,93294.22
2019-01-23T17:58:25.005Z,93301.11
2019-01-23T18:00:51.340Z,93303.69
2019-01-23T18:03:17.975Z,93294.22
2019-01-23T18:05:44.006Z,93294.52
2019-01-23T18:08:10.383Z,93285.86
2019-01-23T18:10:36.741Z,93292.93
2019-01-23T18:13:03.086Z,93300.48
2019-01-23T18:15:29.414Z,93306.13
2019-01-23T18:17:55.751Z,93289.88
2019-01-23T18:20:22.111Z,93291.64
2019-01-23T18:22:48.567Z,93286.34
2019-01-23T18:25:14.839Z,93280.86
2019-01-23T18:27:41.202Z,93275.87
2019-01-23T18:30:07.526Z,93266.69
2019-01-23T18:32:34.015Z,93265.09
2019-01-23T18:35:00.356Z,93267.50
2019-01-23T18:37:26.701Z,93269.61
2019-01-23T18:39:53.054Z,93269.61
2019-01-23T18:42:19.421Z,93270.23
2019-01-23T18:44:45.769Z,93271.37
2019-01-23T18:47:14.571Z,93274.42
2019-01-23T18:49:40.911Z,93265.56
2019-01-23T18:52:07.246Z,93270.87
2019-01-23T18:54:33.624Z,93283.58
2019-01-23T18:56:59.987Z,93282.80
2019-01-23T18:59:26.327Z,93271.22
2019-01-23T19:01:52.669Z,93264.44
2019-01-23T19:04:18.998Z,93260.43
2019-01-23T19:06:45.346Z,93247.07
2019-01-23T19:09:11.694Z,93235.02
2019-01-23T19:11:38.014Z,93223.09
2019-01-23T19:14:04.347Z,93236.45
2019-01-23T19:16:30.707Z,93230.34
2019-01-23T19:18:57.034Z,93228.39
2019-01-23T19:21:23.375Z,93232.25
2019-01-23T19:23:49.694Z,93230.50
2019-01-23T19:26:16.031Z,93222.45
2019-01-23T19:28:42.363Z,93217.47
2019-01-23T19:31:08.704Z,93237.58
2019-01-23T19:33:35.027Z,93225.19
2019-01-23T19:36:01.356Z,93217.78
2019-01-23T19:38:27.675Z,93211.35
2019-01-23T19:40:54.005Z,93215.21
2019-01-23T19:43:20.339Z,93206.52
2019-01-23T19:45:46.716Z,93207.97
2019-01-23T19:48:13.043Z,93216.34
2019-01-23T19:50:39.360Z,93222.12
2019-01-23T19:53:05.694Z,93217.30
2019-01-23T19:55:32.053Z,93223.41
2019-01-23T19:57:58.392Z,93211.50
2019-01-23T20:00:24.786Z,93216.64
2019-01-23T20:02:51.117Z,93209.91
2019-01-23T20:05:17.466Z,93200.57
2019-01-23T20:07:43.812Z,93207.00
2019-01-23T20:10:14.353Z,93199.77
2019-01-23T20:12:36.648Z,93187.22
2019-01-23T20:15:02.986Z,93177.73
2019-01-23T20:17:29.383Z,93171.30
2019-01-23T20:19:55.818Z,93165.02
2019-01-23T20:22:22.106Z,93152.00
2019-01-23T20:24:48.502Z,93150.09
2019-01-23T20:27:14.833Z,93149.58
2019-01-23T20:29:41.162Z,93145.09
2019-01-23T20:32:07.523Z,93127.08
2019-01-23T20:34:33.832Z,93130.90
2019-01-23T20:37:00.249Z,93140.56
2019-01-23T20:39:26.608Z,93137.03
2019-01-23T20:41:53.021Z,93130.75
2019-01-23T20:44:19.347Z,93129.45
2019-01-23T20:46:45.729Z,93111.28
2019-01-23T20:49:12.119Z,93111.27
2019-01-23T20:51:38.514Z,93110.63
2019-01-23T20:54:04.858Z,93103.08
2019-01-23T20:56:31.232Z,93093.75
2019-01-23T20:58:57.636Z,93087.02
2019-01-23T21:01:23.965Z,93073.19
2019-01-23T21:03:50.350Z,93074.47
2019-01-23T21:06:16.739Z,93062.74
2019-01-23T21:08:43.361Z,93065.78
2019-01-23T21:11:09.751Z,93064.34
2019-01-23T21:13:36.110Z,93066.25
2019-01-23T21:16:02.691Z,93063.86
2019-01-23T21:18:29.047Z,93065.14
2019-01-23T21:20:55.391Z,93059.66
2019-01-23T21:23:21.744Z,93072.98
2019-01-23T21:25:48.112Z,93091.14
2019-01-23T21:28:14.437Z,93085.98
2019-01-23T21:30:40.771Z,93089.37
2019-01-23T21:33:07.102Z,93083.91
2019-01-23T21:35:33.438Z,93084.38
2019-01-23T21:37:59.960Z,93082.61
2019-01-23T21:40:26.302Z,93075.38
2019-01-23T21:42:52.628Z,93069.60
2019-01-23T21:45:19.017Z,93076.03
2019-01-23T21:47:45.394Z,93080.97
2019-01-23T21:50:11.695Z,93085.02
2019-01-23T21:52:40.285Z,93071.65
2019-01-23T21:55:06.641Z,93079.52
2019-01-23T21:57:32.971Z,93081.92
2019-01-23T21:59:59.379Z,93079.02
2019-01-23T22:02:25.815Z,93062.48
2019-01-23T22:04:52.148Z,93065.70
2019-01-23T22:07:18.492Z,93071.95
2019-01-23T22:09:44.882Z,93067.44
2019-01-23T22:12:11.255Z,93053.62
2019-01-23T22:14:37.648Z,93060.38
2019-01-23T22:17:04.079Z,93069.21
2019-01-23T22:19:30.378Z,93071.45
2019-01-23T22:21:56.779Z,93066.31
2019-01-23T22:24:23.109Z,93058.43
2019-01-23T22:26:49.507Z,93049.76
2019-01-23T22:29:15.839Z,93052.97
2019-01-23T22:31:42.164Z,93053.62
2019-01-23T22:34:11.180Z,93064.37
2019-01-23T22:36:37.613Z,93060.52
2019-01-23T22:39:03.947Z,93070.79
2019-01-23T22:41:30.373Z,93063.89
2019-01-23T22:43:56.765Z,93063.88
2019-01-23T22:46:23.105Z,93052.94
2019-01-23T22:48:49.502Z,93047.50
2019-01-23T22:51:15.836Z,93044.77
2019-01-23T22:53:42.201Z,93044.26
2019-01-23T22:56:08.560Z,93027.27
2019-01-23T22:58:34.897Z,93032.54
2019-01-23T23:01:01.250Z,93057.27
2019-01-23T23:03:27.678Z,93051.50
2019-01-23T23:05:54.057Z,93057.74
2019-01-23T23:08:20.398Z,93059.34
2019-01-23T23:10:46.717Z,93047.15
2019-01-23T23:13:13.185Z,93050.02
2019-01-23T23:15:39.536Z,93048.44
2019-01-23T23:18:05.935Z,93040.06
2019-01-23T23:20:32.262Z,93031.41
2019-01-23T23:22:58.735Z,93017.74
2019-01-23T23:25:25.055Z,93013.08
2019-01-23T23:27:51.417Z,93008.92
2019-01-23T23:30:17.817Z,93018.08
2019-01-23T23:32:44.126Z,93016.94
2019-01-23T23:35:10.451Z,93018.08
2019-01-23T23:37:36.811Z,93013.41
2019-01-23T23:40:03.180Z,93014.20
2019-01-23T23:42:29.562Z,93005.70
2019-01-23T23:44:56.021Z,92992.55
2019-01-23T23:47:22.393Z,92974.42
2019-01-23T23:49:48.708Z,92975.70
2019-01-23T23:52:15.090Z,92967.02
2019-01-23T23:54:41.450Z,92964.80
2019-01-23T23:57:07.776Z,92952.89
2019-01-23T23:59:34.219Z,92944.71
